Time;durP1;ratioP1;P1;durP2;ratioP2;P2;SDS_P1;SDS_P2;PMS_P1;PMS_P2;Temp;Humidity;BMP_temperature;BMP_pressure;BME280_temperature;BME280_humidity;BME280_pressure;Samples;Min_cycle;Max_cycle;Signal;HPM_P1;HPM_P2
2023/07/10 00:01:58;;;;;;;10.20;5.10;;;;;;;22.64;48.71;101570.03;5012645;28;20041;-82
2023/07/10 00:04:24;;;;;;;8.25;5.32;;;;;;;22.55;48.97;101561.09;4996707;28;20030;-82
2023/07/10 00:06:49;;;;;;;7.45;5.22;;;;;;;22.50;49.04;101552.72;4996708;28;20451;-82
2023/07/10 00:09:15;;;;;;;7.72;4.90;;;;;;;22.55;48.94;101566.38;5013063;28;20030;-82
2023/07/10 00:11:40;;;;;;;14.43;5.63;;;;;;;22.63;48.77;101568.38;5013250;28;20042;-82
2023/07/10 00:14:08;;;;;;;7.72;4.88;;;;;;;22.51;48.61;101567.59;4996357;28;20084;-82
2023/07/10 00:16:34;;;;;;;8.65;4.70;;;;;;;22.38;49.26;101553.78;4996819;28;20495;-82
2023/07/10 00:19:00;;;;;;;11.63;5.00;;;;;;;22.30;49.31;101553.56;4980407;28;20510;-82
2023/07/10 00:21:26;;;;;;;8.13;4.90;;;;;;;22.29;49.36;101550.09;5012827;28;20034;-82
2023/07/10 00:23:52;;;;;;;9.65;5.13;;;;;;;22.31;49.41;101556.06;5012477;28;20492;-82
2023/07/10 00:26:24;;;;;;;7.57;4.88;;;;;;;22.28;49.43;101558.16;5013611;28;20036;-82
2023/07/10 00:28:51;;;;;;;8.50;4.95;;;;;;;22.23;50.05;101560.34;4995807;28;20080;-82
2023/07/10 00:31:17;;;;;;;8.93;5.57;;;;;;;22.20;49.81;101550.88;4996269;28;20496;-82
2023/07/10 00:33:47;;;;;;;8.13;5.13;;;;;;;22.17;50.28;101551.13;4996391;28;20041;-82
2023/07/10 00:36:33;;;;;;;9.43;4.88;;;;;;;22.15;50.23;101557.50;5012316;28;20451;-82
2023/07/10 00:39:03;;;;;;;10.25;5.13;;;;;;;22.09;50.33;101548.28;5012169;28;20549;-83
2023/07/10 00:41:32;;;;;;;8.88;5.07;;;;;;;21.90;50.82;101532.31;4996341;28;20034;-82
2023/07/10 00:44:00;;;;;;;9.13;5.18;;;;;;;21.90;51.40;101564.75;4996182;28;20026;-82
2023/07/10 00:46:45;;;;;;;9.20;5.07;;;;;;;21.90;51.05;101566.53;4996061;28;20060;-82
2023/07/10 00:49:19;;;;;;;10.02;5.45;;;;;;;21.92;51.10;101564.63;4980517;28;20105;-83
2023/07/10 00:51:55;;;;;;;10.23;5.47;;;;;;;21.90;51.13;101558.66;5013127;28;20037;-82
2023/07/10 00:54:27;;;;;;;12.63;6.20;;;;;;;21.86;51.20;101565.97;4995906;28;20025;-83
2023/07/10 00:56:53;;;;;;;8.75;5.20;;;;;;;21.81;51.36;101560.22;4995189;28;20407;-82
2023/07/10 00:59:26;;;;;;;9.30;5.15;;;;;;;21.84;51.14;101559.16;4995839;28;20026;-83
2023/07/10 01:02:07;;;;;;;12.68;4.97;;;;;;;21.60;51.65;101530.38;5012013;28;20033;-82
2023/07/10 01:04:33;;;;;;;8.65;5.13;;;;;;;21.81;51.62;101557.59;5013235;28;20037;-82
2023/07/10 01:06:58;;;;;;;14.25;6.05;;;;;;;21.72;51.77;101555.72;4995704;28;20026;-83
2023/07/10 01:09:24;;;;;;;8.02;4.95;;;;;;;21.80;51.47;101557.72;5013376;28;20034;-82
2023/07/10 01:11:49;;;;;;;10.32;5.72;;;;;;;21.81;51.36;101560.22;4995217;28;20026;-83
2023/07/10 01:14:15;;;;;;;9.38;5.50;;;;;;;21.70;51.99;101565.53;5011186;28;20034;-82
2023/07/10 01:16:41;;;;;;;8.88;5.40;;;;;;;21.66;52.04;101554.44;4995551;28;20026;-82
2023/07/10 01:19:08;;;;;;;9.80;6.13;;;;;;;21.60;52.09;101552.28;5011755;28;20101;-82
2023/07/10 01:21:37;;;;;;;8.93;5.57;;;;;;;21.54;52.42;101558.06;5011677;28;20084;-81
2023/07/10 01:24:04;;;;;;;11.60;6.57;;;;;;;21.56;52.27;101544.75;4995183;28;20416;-82
2023/07/10 01:26:29;;;;;;;13.82;7.18;;;;;;;21.43;52.23;101531.72;4995108;28;20022;-82
2023/07/10 01:28:56;;;;;;;12.73;6.82;;;;;;;21.57;52.34;101567.50;4995194;28;20044;-82
2023/07/10 01:31:21;;;;;;;13.43;6.25;;;;;;;21.43;52.52;101550.16;5011729;28;20117;-83
2023/07/10 01:33:55;;;;;;;9.73;5.68;;;;;;;21.48;52.94;101564.63;4978645;28;20038;-82
2023/07/10 01:36:23;;;;;;;11.43;5.57;;;;;;;21.43;52.92;101558.91;4995280;28;20385;-82
2023/07/10 01:38:50;;;;;;;9.43;5.22;;;;;;;21.45;52.87;101562.25;4995473;28;20030;-83
2023/07/10 01:41:29;;;;;;;9.65;5.28;;;;;;;21.53;52.50;101560.78;4995046;28;20033;-82
2023/07/10 01:43:55;;;;;;;11.13;6.93;;;;;;;21.47;52.82;101559.50;4995108;28;20028;-82
2023/07/10 01:46:22;;;;;;;11.63;7.18;;;;;;;21.43;52.71;101555.41;4994870;28;20030;-83
2023/07/10 01:48:49;;;;;;;11.13;7.57;;;;;;;21.23;52.69;101527.19;4994980;28;20041;-82
2023/07/10 01:51:14;;;;;;;13.15;7.25;;;;;;;21.23;52.94;101535.91;4995003;28;20034;-82
2023/07/10 01:53:43;;;;;;;10.77;6.32;;;;;;;21.38;53.03;101568.13;5011362;28;20041;-82
2023/07/10 01:56:08;;;;;;;10.13;5.75;;;;;;;21.45;52.91;101564.06;4994652;28;20507;-82
2023/07/10 01:58:34;;;;;;;9.32;5.13;;;;;;;21.37;52.73;101550.66;5010811;28;20042;-83
2023/07/10 02:01:00;;;;;;;9.38;5.28;;;;;;;21.35;53.50;101563.94;4994928;28;20506;-82
2023/07/10 02:03:26;;;;;;;9.55;4.97;;;;;;;21.31;53.53;101559.88;4994822;28;20034;-83
2023/07/10 02:05:51;;;;;;;11.75;5.20;;;;;;;21.35;53.42;101569.22;4994508;28;20392;-82
2023/07/10 02:08:16;;;;;;;7.97;5.20;;;;;;;21.11;53.47;101529.00;4994192;28;20034;-82
2023/07/10 02:10:42;;;;;;;7.95;5.53;;;;;;;21.23;53.15;101554.34;5010697;28;20480;-83
2023/07/10 02:13:07;;;;;;;11.20;5.32;;;;;;;21.37;53.20;101567.28;4994385;28;20415;-83
2023/07/10 02:15:33;;;;;;;10.55;6.38;;;;;;;21.36;53.13;101568.25;5010739;28;20037;-81
2023/07/10 02:17:58;;;;;;;9.55;5.82;;;;;;;21.43;52.78;101579.97;4994362;28;20030;-82
2023/07/10 02:20:24;;;;;;;10.00;5.75;;;;;;;21.44;53.05;101581.66;4994164;28;20092;-83
2023/07/10 02:22:50;;;;;;;7.90;5.32;;;;;;;21.32;53.40;101574.69;4994363;28;20025;-83
2023/07/10 02:25:16;;;;;;;7.88;5.10;;;;;;;21.31;53.37;101572.19;5009977;28;20117;-82
2023/07/10 02:27:41;;;;;;;10.45;5.43;;;;;;;21.32;53.64;101589.66;5009995;28;20026;-82
2023/07/10 02:30:07;;;;;;;9.35;5.43;;;;;;;21.27;53.49;101584.78;4993907;28;20030;-82
2023/07/10 02:32:33;;;;;;;8.98;5.32;;;;;;;21.15;53.85;101583.06;4994089;28;20030;-82
2023/07/10 02:34:58;;;;;;;8.30;5.25;;;;;;;21.10;54.00;101574.69;5010251;28;20041;-82
2023/07/10 02:37:23;;;;;;;9.25;5.68;;;;;;;21.05;53.92;101571.59;4993779;28;20033;-82
2023/07/10 02:39:49;;;;;;;9.82;5.35;;;;;;;21.08;54.50;101592.41;4993570;28;20508;-82
2023/07/10 02:42:14;;;;;;;11.77;5.45;;;;;;;20.85;54.68;101566.09;4993979;28;20484;-82
2023/07/10 02:44:40;;;;;;;9.15;5.97;;;;;;;20.92;54.83;101595.38;5010263;28;20053;-83
2023/07/10 02:47:05;;;;;;;9.68;4.85;;;;;;;20.95;57.71;101587.25;4993715;28;20034;-84
2023/07/10 02:49:31;;;;;;;13.23;5.80;;;;;;;20.98;54.73;101581.75;5010051;28;20022;-84
2023/07/10 02:51:56;;;;;;;10.18;5.75;;;;;;;21.00;55.81;101584.25;4993834;28;20022;-85
2023/07/10 02:54:22;;;;;;;10.10;5.78;;;;;;;21.39;55.57;101606.66;4993456;28;20030;-84
2023/07/10 02:56:47;;;;;;;8.75;5.07;;;;;;;21.57;55.58;101605.19;4993474;28;20038;-84
2023/07/10 02:59:12;;;;;;;16.60;6.22;;;;;;;21.58;53.99;101600.75;4993673;28;20030;-84
2023/07/10 03:01:38;;;;;;;9.02;5.18;;;;;;;21.23;54.20;101585.91;4993569;28;20510;-85
2023/07/10 03:04:03;;;;;;;8.57;5.05;;;;;;;21.42;54.18;101609.88;4993627;28;20407;-85
2023/07/10 03:06:29;;;;;;;10.50;5.88;;;;;;;21.24;54.98;101597.28;4993882;28;20083;-84
2023/07/10 03:08:54;;;;;;;12.90;5.75;;;;;;;21.42;54.09;101617.75;4976926;28;20034;-85
2023/07/10 03:11:20;;;;;;;10.93;5.05;;;;;;;21.45;54.07;101590.38;4993480;28;20510;-84
2023/07/10 03:13:46;;;;;;;10.60;5.40;;;;;;;21.71;53.82;101618.06;4993552;28;20018;-84
2023/07/10 03:16:12;;;;;;;7.90;4.72;;;;;;;21.67;53.31;101621.09;4977253;28;20471;-84
2023/07/10 03:18:38;;;;;;;15.90;5.65;;;;;;;21.42;54.23;101601.97;4977004;28;20030;-84
2023/07/10 03:21:04;;;;;;;12.07;5.75;;;;;;;21.51;54.45;101613.56;4992942;28;20494;-84
2023/07/10 03:23:29;;;;;;;24.05;5.95;;;;;;;21.51;54.41;101603.03;4976843;28;20128;-84
2023/07/10 03:25:55;;;;;;;13.10;6.05;;;;;;;21.59;54.43;101607.69;4993104;28;20076;-85
2023/07/10 03:28:20;;;;;;;13.15;5.85;;;;;;;21.53;54.92;101624.81;4993289;28;20041;-85
2023/07/10 03:30:45;;;;;;;9.70;5.10;;;;;;;21.76;54.31;101620.34;4993099;28;20515;-85
2023/07/10 03:33:12;;;;;;;7.20;4.75;;;;;;;21.72;53.56;101616.28;5009674;28;20045;-84
2023/07/10 03:35:37;;;;;;;7.68;5.00;;;;;;;21.94;53.03;101610.97;4977266;28;20022;-84
2023/07/10 03:38:03;;;;;;;10.30;5.35;;;;;;;21.69;54.23;101609.47;4992856;28;20029;-84
2023/07/10 03:40:28;;;;;;;10.20;5.82;;;;;;;21.74;54.03;101611.75;4976872;28;20087;-85
2023/07/10 03:42:53;;;;;;;8.98;5.15;;;;;;;21.57;54.82;101605.19;4993503;28;20037;-84
2023/07/10 03:45:19;;;;;;;17.35;6.07;;;;;;;21.45;54.84;101601.75;5009456;28;20025;-84
2023/07/10 03:47:44;;;;;;;9.82;5.10;;;;;;;21.36;55.28;101581.41;4996228;28;20050;-84
2023/07/10 03:50:10;;;;;;;14.27;6.13;;;;;;;21.52;55.18;101606.50;5009481;28;20033;-83
2023/07/10 03:52:35;;;;;;;22.50;6.53;;;;;;;21.43;55.93;101608.94;4992514;28;20491;-83
2023/07/10 03:55:01;;;;;;;18.98;6.20;;;;;;;21.30;55.85;101604.75;5008997;28;20038;-84
2023/07/10 03:57:27;;;;;;;16.92;5.82;;;;;;;21.34;55.85;101607.03;4992465;28;20053;-84
2023/07/10 03:59:52;;;;;;;11.35;6.22;;;;;;;21.40;55.77;101606.53;4992955;28;20034;-83
2023/07/10 04:02:18;;;;;;;13.18;6.00;;;;;;;21.56;55.11;101615.84;4992841;28;20029;-83
2023/07/10 04:04:43;;;;;;;48.63;7.72;;;;;;;21.51;55.38;101615.38;5009334;28;20029;-83
2023/07/10 04:07:09;;;;;;;9.82;5.63;;;;;;;21.42;55.54;101617.75;5008535;28;20034;-84
2023/07/10 04:09:35;;;;;;;16.73;5.65;;;;;;;21.38;54.96;101621.59;5009269;28;20480;-84
2023/07/10 04:12:00;;;;;;;11.90;5.10;;;;;;;21.38;54.56;101618.97;4992898;28;20037;-85
2023/07/10 04:14:25;;;;;;;9.82;5.07;;;;;;;21.38;54.43;101611.06;4992055;28;20038;-88
2023/07/10 04:16:52;;;;;;;10.75;5.40;;;;;;;21.41;54.74;101621.34;4988975;28;20034;-88
2023/07/10 04:19:19;;;;;;;10.48;4.97;;;;;;;21.37;54.35;101614.66;4992297;28;21470;-87
2023/07/10 04:21:44;;;;;;;8.93;5.05;;;;;;;21.39;54.62;101618.00;4988569;28;20400;-92
2023/07/10 04:24:10;;;;;;;7.28;4.95;;;;;;;21.43;54.53;101619.47;4977554;28;20064;-90
2023/07/10 04:26:35;;;;;;;10.10;4.57;;;;;;;21.41;54.38;101615.25;4974136;28;20034;-90
2023/07/10 04:29:03;;;;;;;6.57;4.80;;;;;;;21.46;54.42;101624.47;4963321;28;20077;-88
2023/07/10 04:31:29;;;;;;;7.43;4.80;;;;;;;21.41;54.44;101621.34;4989666;28;20045;-92
2023/07/10 04:33:55;;;;;;;8.55;4.93;;;;;;;21.41;54.52;101616.09;4996915;28;20034;-92
2023/07/10 04:36:21;;;;;;;6.50;4.30;;;;;;;21.36;55.25;101618.25;4986490;28;20054;-89
2023/07/10 04:38:47;;;;;;;8.68;4.22;;;;;;;21.38;55.13;101607.59;4977038;28;20081;-86
2023/07/10 04:41:14;;;;;;;7.72;4.47;;;;;;;21.44;54.76;101615.03;4989971;28;20088;-91
2023/07/10 04:43:40;;;;;;;6.65;4.22;;;;;;;21.51;55.06;101618.00;4994040;28;20029;-91
2023/07/10 04:46:07;;;;;;;7.47;4.85;;;;;;;21.51;55.06;101615.38;5012585;28;20079;-86
2023/07/10 04:48:32;;;;;;;8.20;4.55;;;;;;;21.65;55.04;101623.84;4985355;28;20046;-84
2023/07/10 04:51:01;;;;;;;5.72;4.50;;;;;;;21.69;54.64;101621.81;5015553;28;20034;-86
2023/07/10 04:53:28;;;;;;;9.20;4.53;;;;;;;21.83;54.73;101632.09;4994663;28;20038;-85
2023/07/10 04:55:53;;;;;;;7.22;4.78;;;;;;;21.91;54.12;101629.63;5012254;28;20036;-88
2023/07/10 04:58:19;;;;;;;8.93;4.97;;;;;;;22.03;53.95;101633.94;4995899;28;20045;-88
2023/07/10 05:00:51;;;;;;;8.50;5.38;;;;;;;22.11;54.01;101620.16;4993958;28;20569;-85
2023/07/10 05:03:16;;;;;;;;;;;;;;;22.26;53.78;101624.16;4980005;28;20120;-92
2023/07/10 05:05:51;;;;;;;9.77;5.10;;;;;;;22.25;54.54;101616.41;4995678;28;20020;-91
2023/07/10 05:08:16;;;;;;;15.70;6.35;;;;;;;22.31;54.11;101629.88;5012691;28;20366;-89
2023/07/10 05:10:45;;;;;;;9.98;6.38;;;;;;;22.44;53.89;101632.38;5012531;28;20496;-86
2023/07/10 05:13:10;;;;;;;19.08;5.35;;;;;;;22.42;54.43;101615.84;4995608;28;20124;-87
2023/07/10 05:15:35;;;;;;;8.23;5.30;;;;;;;22.58;53.49;101628.56;5012750;28;20462;-90
2023/07/10 05:18:01;;;;;;;15.65;5.22;;;;;;;22.68;53.81;101626.00;4996774;28;20038;-91
2023/07/10 05:20:26;;;;;;;8.48;4.93;;;;;;;22.78;53.44;101629.53;4979481;28;20030;-91
2023/07/10 05:22:52;;;;;;;10.65;4.95;;;;;;;22.90;53.66;101628.50;4980537;28;20061;-92
2023/07/10 05:25:19;;;;;;;7.57;4.60;;;;;;;23.01;53.32;101631.09;5012189;28;20034;-90
2023/07/10 05:27:44;;;;;;;8.90;5.40;;;;;;;23.03;52.87;101628.31;4979560;28;20610;-85
2023/07/10 05:30:10;;;;;;;7.85;5.55;;;;;;;23.07;52.77;101621.78;4991892;28;20030;-90
2023/07/10 05:32:36;;;;;;;11.20;4.60;;;;;;;23.11;51.78;101629.34;4979401;28;20025;-90
2023/07/10 05:35:01;;;;;;;6.68;4.03;;;;;;;23.28;52.50;101642.84;5011571;28;20034;-86
2023/07/10 05:37:27;;;;;;;8.32;4.90;;;;;;;23.42;51.33;101631.94;5012466;28;20412;-88
2023/07/10 05:39:52;;;;;;;7.65;5.03;;;;;;;23.53;51.02;101634.47;5011111;28;20046;-89
2023/07/10 05:42:18;;;;;;;10.70;6.22;;;;;;;23.71;50.56;101643.47;4995577;28;20018;-87
2023/07/10 05:44:43;;;;;;;8.05;5.00;;;;;;;23.78;49.97;101642.91;4979141;28;20037;-89
2023/07/10 05:47:09;;;;;;;11.20;5.72;;;;;;;23.85;50.51;101641.41;4975641;28;20117;-90
2023/07/10 05:49:34;;;;;;;7.85;5.10;;;;;;;24.06;49.53;101650.03;4969964;28;20104;-92
2023/07/10 05:52:00;;;;;;;14.02;7.85;;;;;;;24.16;49.35;101648.25;4994964;28;20033;-88
2023/07/10 05:54:25;;;;;;;9.27;4.95;;;;;;;24.26;48.26;101651.72;4995353;28;20034;-90
2023/07/10 05:56:50;;;;;;;14.38;5.50;;;;;;;24.36;48.56;101645.63;4995577;28;20046;-91
2023/07/10 05:59:16;;;;;;;8.63;4.65;;;;;;;24.46;48.51;101641.16;4978868;28;20036;-91
2023/07/10 06:01:41;;;;;;;11.60;4.43;;;;;;;24.51;47.86;101628.38;4996637;28;20030;-90
2023/07/10 06:04:10;;;;;;;6.68;4.20;;;;;;;24.68;48.60;101640.88;5012295;28;20116;-92
2023/07/10 06:06:35;;;;;;;5.72;4.13;;;;;;;24.69;47.95;101637.25;4990631;28;20510;-87
2023/07/10 06:09:01;;;;;;;11.45;4.25;;;;;;;24.76;47.58;101622.47;4976397;28;20026;-90
2023/07/10 06:11:26;;;;;;;8.40;4.43;;;;;;;24.80;47.61;101613.28;4975726;28;20526;-86
2023/07/10 06:13:52;;;;;;;7.85;5.15;;;;;;;24.96;46.91;101633.00;4991624;28;20034;-88
2023/07/10 06:16:17;;;;;;;5.38;3.78;;;;;;;25.10;46.01;101629.91;5008857;28;20034;-91
2023/07/10 06:18:43;;;;;;;6.22;3.90;;;;;;;25.32;46.42;101634.84;5011016;28;20030;-90
2023/07/10 06:21:09;;;;;;;8.77;4.43;;;;;;;25.35;44.28;101620.47;4975323;28;20091;-90
2023/07/10 06:23:34;;;;;;;8.20;4.60;;;;;;;25.53;45.70;101637.25;5004775;28;20124;-91
2023/07/10 06:26:00;;;;;;;8.00;3.97;;;;;;;25.58;44.05;101628.88;4979355;28;20116;-92
2023/07/10 06:28:28;;;;;;;5.53;3.92;;;;;;;25.76;42.90;101642.97;4979089;28;20030;-93
2023/07/10 06:31:04;;;;;;;6.45;4.63;;;;;;;25.73;43.92;101640.63;4978060;28;20029;-89
2023/07/10 06:33:30;;;;;;;5.63;3.70;;;;;;;25.78;42.89;101646.34;4994632;28;20026;-93
2023/07/10 06:35:56;;;;;;;6.10;4.32;;;;;;;25.85;43.84;101652.69;4978515;28;20121;-92
2023/07/10 06:38:21;;;;;;;9.27;4.32;;;;;;;25.94;43.84;101649.13;5008789;28;20189;-91
2023/07/10 06:40:50;;;;;;;7.22;4.80;;;;;;;25.98;43.13;101645.22;4989670;28;20022;-89
2023/07/10 06:43:16;;;;;;;6.60;4.00;;;;;;;26.08;43.74;101639.00;4975272;28;20030;-88
2023/07/10 06:45:43;;;;;;;6.45;4.38;;;;;;;26.14;43.07;101633.09;4973930;28;20057;-87
2023/07/10 06:48:08;;;;;;;9.40;5.53;;;;;;;26.22;43.74;101630.50;4982438;28;20062;-94
2023/07/10 06:50:34;;;;;;;5.72;3.70;;;;;;;26.39;42.95;101645.63;4978489;28;20033;-92
2023/07/10 06:52:59;;;;;;;8.38;4.20;;;;;;;26.44;43.79;101635.34;4991301;28;20026;-92
2023/07/10 06:55:25;;;;;;;7.07;3.90;;;;;;;26.49;43.03;101640.22;4976730;28;20488;-91
2023/07/10 06:57:50;;;;;;;6.18;4.68;;;;;;;26.53;42.57;101634.44;4993798;28;20081;-88
2023/07/10 07:00:17;;;;;;;6.13;4.05;;;;;;;26.63;42.62;101637.00;5009774;28;20076;-85
2023/07/10 07:02:42;;;;;;;6.05;4.07;;;;;;;26.59;42.56;101614.41;5009618;28;20411;-88
2023/07/10 07:05:10;;;;;;;7.00;3.75;;;;;;;26.77;42.45;101632.97;4981786;28;20036;-96
2023/07/10 07:07:36;;;;;;;7.38;4.85;;;;;;;26.91;42.50;101619.09;4979985;28;20037;-92
2023/07/10 07:10:02;;;;;;;10.48;4.40;;;;;;;27.01;42.75;101617.16;4997465;28;20026;-87
2023/07/10 07:12:27;;;;;;;10.55;7.75;;;;;;;27.09;41.32;101627.84;4990535;28;20042;-93
2023/07/10 07:14:53;;;;;;;5.72;4.38;;;;;;;27.18;41.78;101620.75;4973612;28;20117;-90
2023/07/10 07:17:18;;;;;;;7.00;4.32;;;;;;;27.17;40.93;101613.78;4976225;28;20523;-93
2023/07/10 07:19:45;;;;;;;5.95;3.92;;;;;;;27.27;41.50;101621.63;4976989;28;20031;-95
2023/07/10 07:22:11;;;;;;;7.35;4.68;;;;;;;27.34;40.84;101625.31;4978850;28;20030;-94
2023/07/10 07:24:36;;;;;;;8.82;5.13;;;;;;;27.30;40.99;101621.31;4978530;28;20412;-91
2023/07/10 07:27:02;;;;;;;4.93;3.95;;;;;;;27.44;41.50;101610.06;4993711;28;20083;-93
2023/07/10 07:29:27;;;;;;;9.02;5.45;;;;;;;27.66;40.57;101617.47;4992673;28;20087;-91
2023/07/10 07:31:53;;;;;;;6.15;4.43;;;;;;;27.65;41.02;101602.53;4974502;28;20037;-87
2023/07/10 07:34:19;;;;;;;7.18;4.07;;;;;;;27.90;40.63;101618.50;4991611;28;20488;-92
2023/07/10 07:36:44;;;;;;;12.35;4.13;;;;;;;27.95;40.16;101611.69;4992221;28;20026;-91
2023/07/10 07:39:10;;;;;;;7.38;4.60;;;;;;;28.03;40.06;101608.22;5007961;28;20021;-87
2023/07/10 07:41:35;;;;;;;10.60;7.72;;;;;;;28.14;39.70;101613.22;5008795;28;20820;-89
2023/07/10 07:44:01;;;;;;;10.98;5.18;;;;;;;28.16;39.70;101611.22;5009604;28;20037;-91
2023/07/10 07:46:27;;;;;;;25.67;13.10;;;;;;;28.28;38.94;101623.22;4995669;28;20488;-91
2023/07/10 07:48:53;;;;;;;26.90;15.10;;;;;;;28.42;39.12;101610.25;4965029;28;20100;-93
2023/07/10 07:51:18;;;;;;;10.00;5.90;;;;;;;28.52;38.90;101605.56;4989735;28;20551;-91
2023/07/10 07:53:44;;;;;;;6.65;5.40;;;;;;;28.67;38.93;101609.19;4973545;28;20480;-93
2023/07/10 07:56:09;;;;;;;8.40;5.38;;;;;;;28.82;38.62;101612.84;4993958;28;20038;-93
2023/07/10 07:58:35;;;;;;;10.27;5.30;;;;;;;28.85;38.27;101606.31;4976934;28;20145;-91
2023/07/10 08:01:00;;;;;;;7.63;5.28;;;;;;;28.85;38.74;101611.66;4995308;28;20061;-92
2023/07/10 08:03:26;;;;;;;7.35;5.38;;;;;;;28.98;36.85;101606.63;4978026;28;20088;-95
2023/07/10 08:05:52;;;;;;;5.78;4.47;;;;;;;29.00;37.57;101609.94;4978622;28;20038;-93
2023/07/10 08:08:17;;;;;;;11.40;4.15;;;;;;;29.05;37.53;101602.28;4998479;28;20052;-94
2023/07/10 08:10:46;;;;;;;7.78;5.20;;;;;;;29.10;37.33;101612.41;4980455;28;20061;-92
2023/07/10 08:13:11;;;;;;;7.22;5.30;;;;;;;29.05;38.12;101598.78;4988602;28;20041;-90
2023/07/10 08:15:37;;;;;;;6.32;4.35;;;;;;;29.06;38.28;101584.47;4996440;28;20030;-91
2023/07/10 08:18:03;;;;;;;6.53;4.53;;;;;;;29.09;38.00;101608.09;4978580;28;20034;-92
2023/07/10 08:20:28;;;;;;;7.68;4.80;;;;;;;29.11;37.49;101603.44;4994387;28;20048;-92
2023/07/10 08:22:54;;;;;;;6.13;4.40;;;;;;;29.19;38.38;101603.38;4997851;28;20033;-90
2023/07/10 08:25:19;;;;;;;8.27;5.38;;;;;;;29.28;38.22;101597.03;4999245;28;20435;-94
2023/07/10 08:27:45;;;;;;;5.78;4.25;;;;;;;29.30;37.75;101589.72;5000611;28;20065;-90
2023/07/10 08:30:12;;;;;;;5.75;4.50;;;;;;;29.39;38.35;101591.28;4996950;28;20053;-91
2023/07/10 08:32:37;;;;;;;5.97;4.63;;;;;;;29.47;37.98;101594.94;4998590;28;20029;-90
2023/07/10 08:35:03;;;;;;;9.82;4.97;;;;;;;29.52;38.15;101584.63;4999745;28;20084;-92
2023/07/10 08:37:29;;;;;;;8.93;4.93;;;;;;;29.42;37.66;101582.16;4980842;28;20407;-93
2023/07/10 08:39:58;;;;;;;9.02;4.50;;;;;;;29.46;35.85;101569.28;5015708;28;20029;-90
2023/07/10 08:42:28;;;;;;;6.65;4.75;;;;;;;29.74;37.10;101585.63;4997308;28;20096;-92
2023/07/10 08:44:54;;;;;;;7.38;5.20;;;;;;;29.81;37.41;101581.25;4997132;28;20112;-93
2023/07/10 08:47:22;;;;;;;11.68;6.90;;;;;;;29.80;36.48;101580.44;4998012;28;20037;-93
2023/07/10 08:50:03;;;;;;;6.65;5.03;;;;;;;29.93;36.88;101583.31;4987951;28;20045;-91
2023/07/10 08:53:11;;;;;;;6.57;4.65;;;;;;;30.13;36.53;101582.84;5012798;28;20118;-88
2023/07/10 08:55:42;;;;;;;7.00;4.90;;;;;;;30.04;36.38;101587.41;5009007;28;20045;-91
2023/07/10 08:58:21;;;;;;;6.35;4.68;;;;;;;29.97;36.69;101592.59;5013987;28;20529;-93
2023/07/10 09:00:48;;;;;;;7.18;4.97;;;;;;;30.04;35.39;101582.06;4986754;28;20420;-92
2023/07/10 09:03:25;;;;;;;7.10;4.45;;;;;;;30.11;34.15;101582.22;4986696;28;20014;-94
2023/07/10 09:05:52;;;;;;;9.43;5.00;;;;;;;30.17;34.95;101578.81;5013899;28;20459;-94
2023/07/10 09:08:17;;;;;;;6.88;4.78;;;;;;;30.15;34.07;101562.16;5013791;28;20026;-89
2023/07/10 09:10:47;;;;;;;6.25;4.97;;;;;;;30.28;34.15;101562.34;4978994;28;20026;-86
2023/07/10 09:13:18;;;;;;;8.88;5.25;;;;;;;30.47;34.69;101571.69;4996498;28;20095;-94
2023/07/10 09:15:55;;;;;;;6.73;5.23;;;;;;;30.60;33.46;101565.72;4983227;28;20037;-90
2023/07/10 09:18:52;;;;;;;9.55;4.75;;;;;;;30.67;32.32;101572.00;4982031;28;20273;-95
2023/07/10 09:21:23;;;;;;;6.22;4.88;;;;;;;30.77;32.69;101556.53;4993150;28;20119;-90
2023/07/10 09:23:48;;;;;;;10.65;5.28;;;;;;;30.95;32.78;101566.81;4997277;28;20033;-91
2023/07/10 09:26:19;;;;;;;5.40;4.30;;;;;;;31.01;32.37;101561.56;4981165;28;20025;-93
2023/07/10 09:29:00;;;;;;;8.27;4.73;;;;;;;31.01;32.54;101558.09;4995555;28;20542;-87
2023/07/10 09:31:37;;;;;;;6.07;4.50;;;;;;;31.21;31.52;101563.69;4976812;28;20108;-91
2023/07/10 09:34:03;;;;;;;7.03;4.75;;;;;;;31.05;31.74;101549.50;4992250;28;20030;-90
2023/07/10 09:36:28;;;;;;;7.07;4.82;;;;;;;31.21;31.92;101528.94;4975991;28;20033;-89
2023/07/10 09:38:54;;;;;;;7.60;4.85;;;;;;;31.44;31.78;101569.72;4992871;28;20023;-91
2023/07/10 09:41:21;;;;;;;6.40;5.00;;;;;;;31.53;32.07;101565.91;4960479;28;20480;-91
2023/07/10 09:43:58;;;;;;;8.10;5.10;;;;;;;31.54;31.20;101551.50;4960420;28;20030;-95
2023/07/10 09:46:26;;;;;;;8.00;4.93;;;;;;;31.68;31.47;101558.66;4997678;28;20026;-93
2023/07/10 09:48:52;;;;;;;7.68;5.10;;;;;;;31.75;31.21;101576.59;4952860;28;20042;-91
2023/07/10 09:51:17;;;;;;;8.30;4.78;;;;;;;31.63;30.77;101553.03;4975621;28;20027;-91
2023/07/10 09:53:48;;;;;;;8.15;5.35;;;;;;;31.65;31.32;101572.38;4960503;28;20042;-94
2023/07/10 09:56:24;;;;;;;6.93;4.80;;;;;;;31.81;31.80;101566.00;4979227;28;20030;-89
2023/07/10 09:58:52;;;;;;;11.10;6.88;;;;;;;31.94;31.29;101549.22;4978449;28;20050;-90
2023/07/10 10:01:18;;;;;;;6.22;4.82;;;;;;;32.25;30.22;101562.22;4960453;28;20032;-94
2023/07/10 10:03:43;;;;;;;5.13;4.22;;;;;;;32.33;28.78;101550.56;4968247;28;20037;-91
2023/07/10 10:06:27;;;;;;;6.70;4.43;;;;;;;32.25;28.61;101557.72;4978997;28;20037;-92
2023/07/10 10:08:52;;;;;;;13.00;4.22;;;;;;;32.23;27.81;101558.91;4994469;28;20030;-90
2023/07/10 10:11:28;;;;;;;5.55;4.25;;;;;;;32.18;28.43;101567.56;4980331;28;20033;-90
2023/07/10 10:13:56;;;;;;;8.80;6.13;;;;;;;32.05;28.99;101547.88;4996123;28;20026;-89
2023/07/10 10:16:32;;;;;;;8.27;5.75;;;;;;;32.07;30.00;101560.06;4994631;28;20128;-94
2023/07/10 10:18:58;;;;;;;8.05;5.10;;;;;;;32.19;30.09;101550.47;4994940;28;20496;-91
2023/07/10 10:21:24;;;;;;;7.55;5.50;;;;;;;32.27;26.86;101543.31;5008771;28;20032;-91
2023/07/10 10:23:57;;;;;;;6.78;4.75;;;;;;;32.46;28.49;101540.78;4976699;28;20029;-92
2023/07/10 10:26:41;;;;;;;6.75;4.03;;;;;;;32.22;27.04;101517.94;4991039;28;20090;-88
2023/07/10 10:29:25;;;;;;;8.13;4.32;;;;;;;32.41;26.13;101539.72;5009967;28;20025;-89
2023/07/10 10:31:54;;;;;;;5.70;4.40;;;;;;;32.67;25.75;101534.53;5011425;28;20133;-88
2023/07/10 10:35:03;;;;;;;6.15;4.20;;;;;;;32.68;25.96;101535.34;4994659;28;20116;-88
2023/07/10 10:37:54;;;;;;;9.18;4.55;;;;;;;32.56;26.26;101532.41;4992683;28;20041;-87
2023/07/10 10:40:31;;;;;;;6.57;4.22;;;;;;;32.69;25.12;101526.28;5011474;28;20113;-92
2023/07/10 10:43:21;;;;;;;6.80;4.68;;;;;;;32.86;24.99;101526.81;5011055;28;20076;-90
2023/07/10 10:45:50;;;;;;;6.05;4.60;;;;;;;32.83;25.33;101522.66;5011503;28;20111;-90
2023/07/10 10:48:19;;;;;;;5.03;3.92;;;;;;;32.94;25.14;101507.84;4977479;28;20103;-89
2023/07/10 10:50:51;;;;;;;7.55;4.97;;;;;;;32.81;25.63;101528.19;5000977;28;20520;-92
2023/07/10 10:53:20;;;;;;;;;;;;;;;32.76;25.81;101524.47;5011670;28;20132;-92
2023/07/10 10:56:02;;;;;;;7.22;4.60;;;;;;;32.82;26.34;101529.00;5011200;28;19913;-92
2023/07/10 10:58:45;;;;;;;7.60;5.05;;;;;;;32.72;26.17;101513.31;5010418;28;20046;-90
2023/07/10 11:01:13;;;;;;;6.88;4.63;;;;;;;32.96;26.35;101506.63;5011477;28;20026;-86
2023/07/10 11:03:52;;;;;;;7.25;5.70;;;;;;;32.99;26.00;101503.56;5011834;28;20131;-88
2023/07/10 11:06:17;;;;;;;9.82;5.85;;;;;;;33.24;26.17;101511.88;4994793;28;20095;-94
2023/07/10 11:08:47;;;;;;;10.02;5.75;;;;;;;33.27;24.98;101508.78;5011214;28;20476;-94
2023/07/10 11:11:26;;;;;;;6.32;4.68;;;;;;;33.46;24.92;101501.00;4978994;28;20030;-90
2023/07/10 11:13:52;;;;;;;7.25;4.78;;;;;;;33.68;24.71;101494.41;4989467;28;20113;-90
2023/07/10 11:16:17;;;;;;;8.38;4.80;;;;;;;33.79;24.76;101493.78;4974050;28;20104;-88
2023/07/10 11:18:43;;;;;;;8.18;4.72;;;;;;;33.81;24.78;101499.75;4989772;28;20089;-91
2023/07/10 11:21:09;;;;;;;7.10;4.80;;;;;;;33.49;25.20;101489.84;4989265;28;20072;-90
2023/07/10 11:23:49;;;;;;;5.78;4.72;;;;;;;33.56;24.66;101499.56;4989809;28;20476;-89
2023/07/10 11:26:15;;;;;;;5.47;4.53;;;;;;;33.60;24.65;101502.66;4974502;28;20030;-91
2023/07/10 11:28:55;;;;;;;7.32;5.10;;;;;;;33.51;23.60;101498.53;4990931;28;20443;-88